sensor_id;sensor_type;location;lat;lon;timestamp;P1;durP1;ratioP1;P2;durP2;ratioP2
5297;SDS011;14738;42.668;23.250;2024-03-08T00:00:23;2.60;;;2.50;;
5297;SDS011;14738;42.668;23.250;2024-03-08T00:02:49;3.20;;;2.90;;
5297;SDS011;14738;42.668;23.250;2024-03-08T00:05:17;2.77;;;2.67;;
5297;SDS011;14738;42.668;23.250;2024-03-08T00:07:43;2.43;;;2.33;;
5297;SDS011;14738;42.668;23.250;2024-03-08T00:10:10;2.70;;;2.50;;
5297;SDS011;14738;42.668;23.250;2024-03-08T00:12:43;3.00;;;2.80;;
5297;SDS011;14738;42.668;23.250;2024-03-08T00:15:10;2.83;;;2.73;;
5297;SDS011;14738;42.668;23.250;2024-03-08T00:17:38;3.47;;;2.70;;
5297;SDS011;14738;42.668;23.250;2024-03-08T00:20:05;3.07;;;2.97;;
5297;SDS011;14738;42.668;23.250;2024-03-08T00:22:34;3.30;;;3.10;;
5297;SDS011;14738;42.668;23.250;2024-03-08T00:25:00;5.53;;;5.03;;
5297;SDS011;14738;42.668;23.250;2024-03-08T00:27:26;8.53;;;6.53;;
5297;SDS011;14738;42.668;23.250;2024-03-08T00:29:52;3.70;;;3.40;;
5297;SDS011;14738;42.668;23.250;2024-03-08T00:32:17;3.50;;;3.30;;
5297;SDS011;14738;42.668;23.250;2024-03-08T00:34:43;3.07;;;2.87;;
5297;SDS011;14738;42.668;23.250;2024-03-08T00:37:08;3.73;;;3.43;;
5297;SDS011;14738;42.668;23.250;2024-03-08T00:39:33;3.93;;;3.70;;
5297;SDS011;14738;42.668;23.250;2024-03-08T00:41:59;4.20;;;3.90;;
5297;SDS011;14738;42.668;23.250;2024-03-08T00:44:25;4.13;;;3.83;;
5297;SDS011;14738;42.668;23.250;2024-03-08T00:46:50;3.60;;;3.30;;
5297;SDS011;14738;42.668;23.250;2024-03-08T00:49:16;3.97;;;3.67;;
5297;SDS011;14738;42.668;23.250;2024-03-08T00:51:41;3.17;;;3.07;;
5297;SDS011;14738;42.668;23.250;2024-03-08T00:54:08;3.53;;;3.33;;
5297;SDS011;14738;42.668;23.250;2024-03-08T00:56:33;3.47;;;3.17;;
5297;SDS011;14738;42.668;23.250;2024-03-08T00:59:00;3.90;;;3.60;;
5297;SDS011;14738;42.668;23.250;2024-03-08T01:01:27;3.73;;;3.43;;
5297;SDS011;14738;42.668;23.250;2024-03-08T01:03:53;3.40;;;3.20;;
5297;SDS011;14738;42.668;23.250;2024-03-08T01:06:18;3.13;;;2.80;;
5297;SDS011;14738;42.668;23.250;2024-03-08T01:08:44;3.40;;;3.20;;
5297;SDS011;14738;42.668;23.250;2024-03-08T01:11:10;3.73;;;3.43;;
5297;SDS011;14738;42.668;23.250;2024-03-08T01:13:36;3.03;;;2.83;;
5297;SDS011;14738;42.668;23.250;2024-03-08T01:16:01;3.30;;;3.10;;
5297;SDS011;14738;42.668;23.250;2024-03-08T01:18:28;3.07;;;2.87;;
5297;SDS011;14738;42.668;23.250;2024-03-08T01:20:54;2.67;;;2.57;;
5297;SDS011;14738;42.668;23.250;2024-03-08T01:23:19;2.90;;;2.70;;
5297;SDS011;14738;42.668;23.250;2024-03-08T01:25:45;2.37;;;2.27;;
5297;SDS011;14738;42.668;23.250;2024-03-08T01:28:10;2.70;;;2.60;;
5297;SDS011;14738;42.668;23.250;2024-03-08T01:30:36;3.37;;;3.00;;
5297;SDS011;14738;42.668;23.250;2024-03-08T01:33:02;4.30;;;3.80;;
5297;SDS011;14738;42.668;23.250;2024-03-08T01:35:28;3.87;;;3.50;;
5297;SDS011;14738;42.668;23.250;2024-03-08T01:37:53;7.00;;;4.37;;
5297;SDS011;14738;42.668;23.250;2024-03-08T01:40:19;4.20;;;3.80;;
5297;SDS011;14738;42.668;23.250;2024-03-08T01:42:45;3.50;;;3.20;;
5297;SDS011;14738;42.668;23.250;2024-03-08T01:45:10;3.90;;;3.60;;
5297;SDS011;14738;42.668;23.250;2024-03-08T01:47:35;4.50;;;4.10;;
5297;SDS011;14738;42.668;23.250;2024-03-08T01:50:02;4.03;;;3.67;;
5297;SDS011;14738;42.668;23.250;2024-03-08T01:52:29;2.87;;;2.67;;
5297;SDS011;14738;42.668;23.250;2024-03-08T01:54:57;2.90;;;2.70;;
5297;SDS011;14738;42.668;23.250;2024-03-08T01:57:26;2.50;;;2.40;;
5297;SDS011;14738;42.668;23.250;2024-03-08T01:59:52;2.60;;;2.50;;
5297;SDS011;14738;42.668;23.250;2024-03-08T02:02:19;2.33;;;2.23;;
5297;SDS011;14738;42.668;23.250;2024-03-08T02:04:46;2.93;;;2.73;;
5297;SDS011;14738;42.668;23.250;2024-03-08T02:07:12;2.67;;;2.57;;
5297;SDS011;14738;42.668;23.250;2024-03-08T02:09:38;3.00;;;2.80;;
5297;SDS011;14738;42.668;23.250;2024-03-08T02:12:04;2.73;;;2.60;;
5297;SDS011;14738;42.668;23.250;2024-03-08T02:14:30;3.37;;;3.17;;
5297;SDS011;14738;42.668;23.250;2024-03-08T02:16:59;3.33;;;3.13;;
5297;SDS011;14738;42.668;23.250;2024-03-08T02:19:25;3.30;;;3.13;;
5297;SDS011;14738;42.668;23.250;2024-03-08T02:21:50;3.17;;;2.97;;
5297;SDS011;14738;42.668;23.250;2024-03-08T02:24:16;3.77;;;3.50;;
5297;SDS011;14738;42.668;23.250;2024-03-08T02:26:41;3.60;;;3.40;;
5297;SDS011;14738;42.668;23.250;2024-03-08T02:29:07;3.80;;;3.50;;
5297;SDS011;14738;42.668;23.250;2024-03-08T02:31:33;3.23;;;3.13;;
5297;SDS011;14738;42.668;23.250;2024-03-08T02:33:59;2.67;;;2.57;;
5297;SDS011;14738;42.668;23.250;2024-03-08T02:36:24;2.80;;;2.63;;
5297;SDS011;14738;42.668;23.250;2024-03-08T02:38:50;3.27;;;3.03;;
5297;SDS011;14738;42.668;23.250;2024-03-08T02:41:15;3.30;;;3.07;;
5297;SDS011;14738;42.668;23.250;2024-03-08T02:43:40;3.43;;;3.23;;
5297;SDS011;14738;42.668;23.250;2024-03-08T02:46:06;3.47;;;3.27;;
5297;SDS011;14738;42.668;23.250;2024-03-08T02:48:31;2.80;;;2.60;;
5297;SDS011;14738;42.668;23.250;2024-03-08T02:50:57;3.80;;;3.50;;
5297;SDS011;14738;42.668;23.250;2024-03-08T02:53:22;4.00;;;3.70;;
5297;SDS011;14738;42.668;23.250;2024-03-08T02:55:49;6.03;;;3.70;;
5297;SDS011;14738;42.668;23.250;2024-03-08T02:58:15;4.30;;;4.00;;
5297;SDS011;14738;42.668;23.250;2024-03-08T03:00:40;4.57;;;4.27;;
5297;SDS011;14738;42.668;23.250;2024-03-08T03:03:06;4.00;;;3.70;;
5297;SDS011;14738;42.668;23.250;2024-03-08T03:05:32;4.47;;;3.50;;
5297;SDS011;14738;42.668;23.250;2024-03-08T03:07:58;4.17;;;3.87;;
5297;SDS011;14738;42.668;23.250;2024-03-08T03:10:24;3.77;;;3.57;;
5297;SDS011;14738;42.668;23.250;2024-03-08T03:12:49;3.70;;;3.40;;
5297;SDS011;14738;42.668;23.250;2024-03-08T03:15:15;3.33;;;3.10;;
5297;SDS011;14738;42.668;23.250;2024-03-08T03:17:45;3.40;;;3.20;;
5297;SDS011;14738;42.668;23.250;2024-03-08T03:20:16;3.50;;;3.30;;
5297;SDS011;14738;42.668;23.250;2024-03-08T03:22:48;3.50;;;3.30;;
5297;SDS011;14738;42.668;23.250;2024-03-08T03:25:17;2.90;;;2.70;;
5297;SDS011;14738;42.668;23.250;2024-03-08T03:27:54;2.90;;;2.70;;
5297;SDS011;14738;42.668;23.250;2024-03-08T03:30:22;3.00;;;2.80;;
5297;SDS011;14738;42.668;23.250;2024-03-08T03:32:51;2.60;;;2.47;;
5297;SDS011;14738;42.668;23.250;2024-03-08T03:35:17;2.30;;;2.20;;
5297;SDS011;14738;42.668;23.250;2024-03-08T03:37:43;2.97;;;2.87;;
5297;SDS011;14738;42.668;23.250;2024-03-08T03:40:47;1.87;;;1.77;;
5297;SDS011;14738;42.668;23.250;2024-03-08T03:43:13;2.13;;;2.03;;
5297;SDS011;14738;42.668;23.250;2024-03-08T03:45:39;2.43;;;2.30;;
5297;SDS011;14738;42.668;23.250;2024-03-08T03:48:06;2.50;;;2.40;;
5297;SDS011;14738;42.668;23.250;2024-03-08T03:50:34;2.20;;;2.10;;
5297;SDS011;14738;42.668;23.250;2024-03-08T03:53:00;2.23;;;2.13;;
5297;SDS011;14738;42.668;23.250;2024-03-08T03:55:25;2.30;;;2.17;;
5297;SDS011;14738;42.668;23.250;2024-03-08T03:57:52;2.00;;;1.90;;
5297;SDS011;14738;42.668;23.250;2024-03-08T04:00:17;2.37;;;2.27;;
5297;SDS011;14738;42.668;23.250;2024-03-08T04:02:43;2.57;;;2.47;;
5297;SDS011;14738;42.668;23.250;2024-03-08T04:05:09;3.60;;;3.10;;
5297;SDS011;14738;42.668;23.250;2024-03-08T04:07:35;3.10;;;2.87;;
5297;SDS011;14738;42.668;23.250;2024-03-08T04:10:02;3.17;;;2.97;;
5297;SDS011;14738;42.668;23.250;2024-03-08T04:12:28;2.00;;;1.80;;
5297;SDS011;14738;42.668;23.250;2024-03-08T04:14:55;2.00;;;1.90;;
5297;SDS011;14738;42.668;23.250;2024-03-08T04:17:21;5.13;;;4.80;;
5297;SDS011;14738;42.668;23.250;2024-03-08T04:19:46;3.00;;;2.80;;
5297;SDS011;14738;42.668;23.250;2024-03-08T04:22:13;2.63;;;2.43;;
5297;SDS011;14738;42.668;23.250;2024-03-08T04:24:38;1.80;;;1.70;;
5297;SDS011;14738;42.668;23.250;2024-03-08T04:27:05;2.00;;;1.90;;
5297;SDS011;14738;42.668;23.250;2024-03-08T04:29:32;2.80;;;2.63;;
5297;SDS011;14738;42.668;23.250;2024-03-08T04:31:59;4.37;;;3.97;;
5297;SDS011;14738;42.668;23.250;2024-03-08T04:34:24;2.50;;;2.40;;
5297;SDS011;14738;42.668;23.250;2024-03-08T04:36:50;3.27;;;3.07;;
5297;SDS011;14738;42.668;23.250;2024-03-08T04:39:15;2.60;;;2.50;;
5297;SDS011;14738;42.668;23.250;2024-03-08T04:41:41;3.03;;;2.73;;
5297;SDS011;14738;42.668;23.250;2024-03-08T04:44:09;3.00;;;2.80;;
5297;SDS011;14738;42.668;23.250;2024-03-08T04:46:35;3.40;;;3.20;;
5297;SDS011;14738;42.668;23.250;2024-03-08T04:49:01;5.33;;;2.97;;
5297;SDS011;14738;42.668;23.250;2024-03-08T04:51:26;2.87;;;2.77;;
5297;SDS011;14738;42.668;23.250;2024-03-08T04:53:52;2.23;;;2.13;;
5297;SDS011;14738;42.668;23.250;2024-03-08T04:56:17;2.40;;;2.30;;
5297;SDS011;14738;42.668;23.250;2024-03-08T04:58:44;2.90;;;2.70;;
5297;SDS011;14738;42.668;23.250;2024-03-08T05:01:11;3.00;;;2.80;;
5297;SDS011;14738;42.668;23.250;2024-03-08T05:03:37;3.03;;;2.93;;
5297;SDS011;14738;42.668;23.250;2024-03-08T05:06:03;2.83;;;2.53;;
5297;SDS011;14738;42.668;23.250;2024-03-08T05:08:29;3.20;;;3.07;;
5297;SDS011;14738;42.668;23.250;2024-03-08T05:10:55;2.80;;;2.70;;
5297;SDS011;14738;42.668;23.250;2024-03-08T05:13:21;3.33;;;3.13;;
5297;SDS011;14738;42.668;23.250;2024-03-08T05:15:49;2.43;;;2.33;;
5297;SDS011;14738;42.668;23.250;2024-03-08T05:18:18;3.27;;;3.07;;
5297;SDS011;14738;42.668;23.250;2024-03-08T05:20:43;4.30;;;3.90;;
5297;SDS011;14738;42.668;23.250;2024-03-08T05:23:08;8.07;;;5.87;;
5297;SDS011;14738;42.668;23.250;2024-03-08T05:25:34;5.50;;;5.00;;
5297;SDS011;14738;42.668;23.250;2024-03-08T05:27:59;5.43;;;4.93;;
5297;SDS011;14738;42.668;23.250;2024-03-08T05:30:25;5.63;;;4.87;;
5297;SDS011;14738;42.668;23.250;2024-03-08T05:32:50;4.10;;;3.80;;
5297;SDS011;14738;42.668;23.250;2024-03-08T05:35:16;4.87;;;4.47;;
5297;SDS011;14738;42.668;23.250;2024-03-08T05:37:42;4.93;;;4.53;;
5297;SDS011;14738;42.668;23.250;2024-03-08T05:40:07;5.23;;;4.73;;
5297;SDS011;14738;42.668;23.250;2024-03-08T05:42:37;5.43;;;4.93;;
5297;SDS011;14738;42.668;23.250;2024-03-08T05:45:03;5.80;;;5.23;;
5297;SDS011;14738;42.668;23.250;2024-03-08T05:47:31;5.10;;;4.70;;
5297;SDS011;14738;42.668;23.250;2024-03-08T05:49:57;5.47;;;4.87;;
5297;SDS011;14738;42.668;23.250;2024-03-08T05:52:23;6.47;;;5.87;;
5297;SDS011;14738;42.668;23.250;2024-03-08T05:54:48;9.40;;;6.73;;
5297;SDS011;14738;42.668;23.250;2024-03-08T05:57:14;5.83;;;5.23;;
5297;SDS011;14738;42.668;23.250;2024-03-08T05:59:39;6.40;;;5.80;;
5297;SDS011;14738;42.668;23.250;2024-03-08T06:02:05;6.43;;;5.83;;
5297;SDS011;14738;42.668;23.250;2024-03-08T06:04:30;6.57;;;5.20;;
5297;SDS011;14738;42.668;23.250;2024-03-08T06:06:56;6.00;;;5.40;;
5297;SDS011;14738;42.668;23.250;2024-03-08T06:09:23;5.30;;;4.90;;
5297;SDS011;14738;42.668;23.250;2024-03-08T06:11:49;6.13;;;5.60;;
5297;SDS011;14738;42.668;23.250;2024-03-08T06:14:15;6.20;;;5.60;;
5297;SDS011;14738;42.668;23.250;2024-03-08T06:16:44;7.40;;;6.43;;
5297;SDS011;14738;42.668;23.250;2024-03-08T06:19:09;5.87;;;5.30;;
5297;SDS011;14738;42.668;23.250;2024-03-08T06:21:35;7.27;;;6.57;;
5297;SDS011;14738;42.668;23.250;2024-03-08T06:24:01;7.00;;;6.30;;
5297;SDS011;14738;42.668;23.250;2024-03-08T06:26:26;6.27;;;5.67;;
5297;SDS011;14738;42.668;23.250;2024-03-08T06:28:55;6.10;;;5.47;;
5297;SDS011;14738;42.668;23.250;2024-03-08T06:31:20;6.10;;;5.50;;
5297;SDS011;14738;42.668;23.250;2024-03-08T06:33:46;6.80;;;5.50;;
5297;SDS011;14738;42.668;23.250;2024-03-08T06:36:15;6.00;;;5.50;;
5297;SDS011;14738;42.668;23.250;2024-03-08T06:38:43;6.20;;;5.60;;
5297;SDS011;14738;42.668;23.250;2024-03-08T06:41:11;6.47;;;5.87;;
5297;SDS011;14738;42.668;23.250;2024-03-08T06:43:45;5.67;;;5.17;;
5297;SDS011;14738;42.668;23.250;2024-03-08T06:46:11;9.00;;;6.27;;
5297;SDS011;14738;42.668;23.250;2024-03-08T06:48:40;7.57;;;6.43;;
5297;SDS011;14738;42.668;23.250;2024-03-08T06:51:06;6.67;;;5.93;;
5297;SDS011;14738;42.668;23.250;2024-03-08T06:53:32;7.53;;;6.83;;
5297;SDS011;14738;42.668;23.250;2024-03-08T06:55:57;7.60;;;6.57;;
5297;SDS011;14738;42.668;23.250;2024-03-08T06:58:23;9.87;;;8.90;;
5297;SDS011;14738;42.668;23.250;2024-03-08T07:00:49;20.13;;;5.77;;
5297;SDS011;14738;42.668;23.250;2024-03-08T07:03:17;8.43;;;7.60;;
5297;SDS011;14738;42.668;23.250;2024-03-08T07:05:43;7.30;;;6.50;;
5297;SDS011;14738;42.668;23.250;2024-03-08T07:08:08;9.50;;;8.30;;
5297;SDS011;14738;42.668;23.250;2024-03-08T07:10:34;6.53;;;5.93;;
5297;SDS011;14738;42.668;23.250;2024-03-08T07:13:02;6.23;;;5.63;;
5297;SDS011;14738;42.668;23.250;2024-03-08T07:15:27;7.57;;;6.77;;
5297;SDS011;14738;42.668;23.250;2024-03-08T07:17:53;7.37;;;6.23;;
5297;SDS011;14738;42.668;23.250;2024-03-08T07:20:19;6.77;;;6.17;;
5297;SDS011;14738;42.668;23.250;2024-03-08T07:22:47;7.27;;;6.07;;
5297;SDS011;14738;42.668;23.250;2024-03-08T07:25:15;6.83;;;6.03;;
5297;SDS011;14738;42.668;23.250;2024-03-08T07:27:48;7.03;;;6.37;;
5297;SDS011;14738;42.668;23.250;2024-03-08T07:30:15;6.37;;;5.70;;
5297;SDS011;14738;42.668;23.250;2024-03-08T07:33:19;5.30;;;4.90;;
5297;SDS011;14738;42.668;23.250;2024-03-08T07:35:44;6.30;;;5.70;;
5297;SDS011;14738;42.668;23.250;2024-03-08T07:38:11;5.63;;;5.07;;
5297;SDS011;14738;42.668;23.250;2024-03-08T07:40:40;7.53;;;5.40;;
5297;SDS011;14738;42.668;23.250;2024-03-08T07:43:09;5.97;;;5.03;;
5297;SDS011;14738;42.668;23.250;2024-03-08T07:45:36;5.90;;;5.40;;
5297;SDS011;14738;42.668;23.250;2024-03-08T07:48:02;6.67;;;5.47;;
5297;SDS011;14738;42.668;23.250;2024-03-08T07:50:28;6.00;;;5.50;;
5297;SDS011;14738;42.668;23.250;2024-03-08T07:52:53;8.80;;;7.90;;
5297;SDS011;14738;42.668;23.250;2024-03-08T07:55:19;8.80;;;7.83;;
5297;SDS011;14738;42.668;23.250;2024-03-08T07:57:45;10.53;;;7.37;;
5297;SDS011;14738;42.668;23.250;2024-03-08T08:00:12;8.67;;;7.83;;
5297;SDS011;14738;42.668;23.250;2024-03-08T08:02:42;9.93;;;8.37;;
5297;SDS011;14738;42.668;23.250;2024-03-08T08:05:08;12.77;;;7.67;;
5297;SDS011;14738;42.668;23.250;2024-03-08T08:07:35;8.90;;;8.00;;
5297;SDS011;14738;42.668;23.250;2024-03-08T08:10:01;9.63;;;8.57;;
5297;SDS011;14738;42.668;23.250;2024-03-08T08:12:26;7.93;;;7.10;;
5297;SDS011;14738;42.668;23.250;2024-03-08T08:14:54;10.93;;;7.87;;
5297;SDS011;14738;42.668;23.250;2024-03-08T08:17:19;7.90;;;7.10;;
5297;SDS011;14738;42.668;23.250;2024-03-08T08:19:45;7.93;;;7.13;;
5297;SDS011;14738;42.668;23.250;2024-03-08T08:22:10;7.13;;;6.50;;
5297;SDS011;14738;42.668;23.250;2024-03-08T08:24:36;6.53;;;5.90;;
5297;SDS011;14738;42.668;23.250;2024-03-08T08:27:02;6.43;;;5.83;;
5297;SDS011;14738;42.668;23.250;2024-03-08T08:29:28;6.80;;;6.20;;
5297;SDS011;14738;42.668;23.250;2024-03-08T08:31:56;7.70;;;7.00;;
5297;SDS011;14738;42.668;23.250;2024-03-08T08:34:24;8.17;;;6.63;;
5297;SDS011;14738;42.668;23.250;2024-03-08T08:36:51;6.87;;;6.27;;
5297;SDS011;14738;42.668;23.250;2024-03-08T08:39:17;6.37;;;5.87;;
5297;SDS011;14738;42.668;23.250;2024-03-08T08:41:43;6.87;;;6.00;;
5297;SDS011;14738;42.668;23.250;2024-03-08T08:44:08;10.80;;;6.90;;
5297;SDS011;14738;42.668;23.250;2024-03-08T08:46:37;7.63;;;6.93;;
5297;SDS011;14738;42.668;23.250;2024-03-08T08:49:03;10.93;;;9.10;;
5297;SDS011;14738;42.668;23.250;2024-03-08T08:51:29;7.50;;;6.80;;
5297;SDS011;14738;42.668;23.250;2024-03-08T08:53:56;9.97;;;8.50;;
5297;SDS011;14738;42.668;23.250;2024-03-08T08:56:21;9.70;;;8.80;;
5297;SDS011;14738;42.668;23.250;2024-03-08T08:58:47;9.37;;;8.47;;
5297;SDS011;14738;42.668;23.250;2024-03-08T09:01:14;9.73;;;8.73;;
5297;SDS011;14738;42.668;23.250;2024-03-08T09:03:39;10.00;;;8.63;;
5297;SDS011;14738;42.668;23.250;2024-03-08T09:06:09;10.00;;;9.00;;
5297;SDS011;14738;42.668;23.250;2024-03-08T09:08:37;9.13;;;8.20;;
5297;SDS011;14738;42.668;23.250;2024-03-08T09:11:03;7.57;;;6.87;;
5297;SDS011;14738;42.668;23.250;2024-03-08T09:13:29;6.20;;;5.50;;
5297;SDS011;14738;42.668;23.250;2024-03-08T09:15:54;5.40;;;5.00;;
5297;SDS011;14738;42.668;23.250;2024-03-08T09:18:20;4.60;;;4.30;;
5297;SDS011;14738;42.668;23.250;2024-03-08T09:20:45;5.20;;;4.70;;
5297;SDS011;14738;42.668;23.250;2024-03-08T09:23:10;5.30;;;4.87;;
5297;SDS011;14738;42.668;23.250;2024-03-08T09:25:36;5.17;;;4.77;;
5297;SDS011;14738;42.668;23.250;2024-03-08T09:28:05;5.33;;;4.47;;
5297;SDS011;14738;42.668;23.250;2024-03-08T09:30:31;3.07;;;2.87;;
5297;SDS011;14738;42.668;23.250;2024-03-08T09:32:56;3.37;;;3.07;;
5297;SDS011;14738;42.668;23.250;2024-03-08T09:35:21;3.60;;;3.40;;
5297;SDS011;14738;42.668;23.250;2024-03-08T09:37:47;2.90;;;2.80;;
5297;SDS011;14738;42.668;23.250;2024-03-08T09:40:15;2.90;;;2.70;;
5297;SDS011;14738;42.668;23.250;2024-03-08T09:42:44;3.53;;;3.33;;
5297;SDS011;14738;42.668;23.250;2024-03-08T09:45:11;3.70;;;3.50;;
5297;SDS011;14738;42.668;23.250;2024-03-08T09:47:40;4.63;;;4.30;;
5297;SDS011;14738;42.668;23.250;2024-03-08T09:50:07;3.90;;;3.70;;
5297;SDS011;14738;42.668;23.250;2024-03-08T09:52:37;3.40;;;3.20;;
5297;SDS011;14738;42.668;23.250;2024-03-08T09:55:04;4.00;;;3.70;;
5297;SDS011;14738;42.668;23.250;2024-03-08T09:57:31;4.23;;;3.93;;
5297;SDS011;14738;42.668;23.250;2024-03-08T09:59:58;5.20;;;4.63;;
5297;SDS011;14738;42.668;23.250;2024-03-08T10:02:24;5.70;;;4.67;;
5297;SDS011;14738;42.668;23.250;2024-03-08T10:04:50;3.77;;;3.57;;
5297;SDS011;14738;42.668;23.250;2024-03-08T10:07:18;3.60;;;3.40;;
5297;SDS011;14738;42.668;23.250;2024-03-08T10:09:44;5.50;;;4.33;;
5297;SDS011;14738;42.668;23.250;2024-03-08T10:12:15;4.63;;;4.33;;
5297;SDS011;14738;42.668;23.250;2024-03-08T10:14:41;5.30;;;4.83;;
5297;SDS011;14738;42.668;23.250;2024-03-08T10:17:07;6.17;;;5.57;;
5297;SDS011;14738;42.668;23.250;2024-03-08T10:19:33;5.80;;;5.30;;
5297;SDS011;14738;42.668;23.250;2024-03-08T10:21:59;5.13;;;4.73;;
5297;SDS011;14738;42.668;23.250;2024-03-08T10:24:24;3.50;;;3.30;;
5297;SDS011;14738;42.668;23.250;2024-03-08T10:26:53;4.23;;;3.97;;
5297;SDS011;14738;42.668;23.250;2024-03-08T10:29:23;4.33;;;4.13;;
5297;SDS011;14738;42.668;23.250;2024-03-08T10:31:49;4.27;;;3.80;;
5297;SDS011;14738;42.668;23.250;2024-03-08T10:34:15;3.90;;;3.70;;
5297;SDS011;14738;42.668;23.250;2024-03-08T10:36:41;4.70;;;4.30;;
5297;SDS011;14738;42.668;23.250;2024-03-08T10:39:09;4.50;;;4.17;;
5297;SDS011;14738;42.668;23.250;2024-03-08T10:41:45;4.70;;;4.30;;
5297;SDS011;14738;42.668;23.250;2024-03-08T10:47:00;4.20;;;3.80;;
5297;SDS011;14738;42.668;23.250;2024-03-08T10:49:50;3.67;;;3.43;;
5297;SDS011;14738;42.668;23.250;2024-03-08T10:52:16;4.00;;;3.33;;
5297;SDS011;14738;42.668;23.250;2024-03-08T10:54:43;4.60;;;3.60;;
5297;SDS011;14738;42.668;23.250;2024-03-08T10:57:10;4.00;;;3.70;;
5297;SDS011;14738;42.668;23.250;2024-03-08T10:59:37;2.70;;;2.60;;
5297;SDS011;14738;42.668;23.250;2024-03-08T11:02:04;3.70;;;3.40;;
5297;SDS011;14738;42.668;23.250;2024-03-08T11:04:30;2.73;;;2.53;;
5297;SDS011;14738;42.668;23.250;2024-03-08T11:07:01;2.67;;;2.57;;
5297;SDS011;14738;42.668;23.250;2024-03-08T11:14:54;3.37;;;3.10;;
5297;SDS011;14738;42.668;23.250;2024-03-08T11:17:21;2.73;;;2.63;;
5297;SDS011;14738;42.668;23.250;2024-03-08T11:19:52;3.20;;;3.03;;
5297;SDS011;14738;42.668;23.250;2024-03-08T11:22:47;2.40;;;2.30;;
5297;SDS011;14738;42.668;23.250;2024-03-08T11:30:41;2.83;;;2.63;;
5297;SDS011;14738;42.668;23.250;2024-03-08T11:33:10;2.70;;;2.60;;
5297;SDS011;14738;42.668;23.250;2024-03-08T11:35:37;2.47;;;2.37;;
5297;SDS011;14738;42.668;23.250;2024-03-08T11:38:03;2.30;;;2.20;;
5297;SDS011;14738;42.668;23.250;2024-03-08T11:40:29;2.40;;;2.30;;
5297;SDS011;14738;42.668;23.250;2024-03-08T11:42:55;2.50;;;2.40;;
5297;SDS011;14738;42.668;23.250;2024-03-08T11:45:20;7.40;;;2.70;;
5297;SDS011;14738;42.668;23.250;2024-03-08T11:47:49;6.40;;;3.20;;
5297;SDS011;14738;42.668;23.250;2024-03-08T11:50:15;3.33;;;3.13;;
5297;SDS011;14738;42.668;23.250;2024-03-08T11:52:41;3.27;;;3.07;;
5297;SDS011;14738;42.668;23.250;2024-03-08T11:55:08;3.03;;;2.93;;
5297;SDS011;14738;42.668;23.250;2024-03-08T11:57:34;3.50;;;3.20;;
5297;SDS011;14738;42.668;23.250;2024-03-08T11:59:59;2.83;;;2.63;;
5297;SDS011;14738;42.668;23.250;2024-03-08T12:02:32;2.97;;;2.77;;
5297;SDS011;14738;42.668;23.250;2024-03-08T12:05:03;2.60;;;2.50;;
5297;SDS011;14738;42.668;23.250;2024-03-08T12:07:31;2.70;;;2.50;;
5297;SDS011;14738;42.668;23.250;2024-03-08T12:12:48;3.63;;;3.10;;
5297;SDS011;14738;42.668;23.250;2024-03-08T12:15:18;3.10;;;3.00;;
5297;SDS011;14738;42.668;23.250;2024-03-08T12:17:45;2.60;;;2.40;;
5297;SDS011;14738;42.668;23.250;2024-03-08T12:20:18;2.80;;;2.70;;
5297;SDS011;14738;42.668;23.250;2024-03-08T12:22:46;2.70;;;2.50;;
5297;SDS011;14738;42.668;23.250;2024-03-08T12:25:12;3.67;;;3.37;;
5297;SDS011;14738;42.668;23.250;2024-03-08T12:27:39;2.40;;;2.20;;
5297;SDS011;14738;42.668;23.250;2024-03-08T12:33:07;3.30;;;2.50;;
5297;SDS011;14738;42.668;23.250;2024-03-08T12:35:35;2.63;;;2.50;;
5297;SDS011;14738;42.668;23.250;2024-03-08T12:38:02;2.30;;;2.20;;
5297;SDS011;14738;42.668;23.250;2024-03-08T12:40:31;2.73;;;2.53;;
5297;SDS011;14738;42.668;23.250;2024-03-08T12:43:03;2.37;;;2.27;;
5297;SDS011;14738;42.668;23.250;2024-03-08T12:45:28;2.73;;;2.50;;
5297;SDS011;14738;42.668;23.250;2024-03-08T12:47:54;2.87;;;2.77;;
5297;SDS011;14738;42.668;23.250;2024-03-08T12:50:21;2.47;;;2.33;;
5297;SDS011;14738;42.668;23.250;2024-03-08T12:52:47;2.83;;;2.63;;
5297;SDS011;14738;42.668;23.250;2024-03-08T12:55:17;3.10;;;2.90;;
5297;SDS011;14738;42.668;23.250;2024-03-08T12:57:43;5.43;;;2.80;;
5297;SDS011;14738;42.668;23.250;2024-03-08T13:00:09;3.40;;;3.10;;
5297;SDS011;14738;42.668;23.250;2024-03-08T13:02:44;3.03;;;2.90;;
5297;SDS011;14738;42.668;23.250;2024-03-08T13:05:13;2.70;;;2.60;;
5297;SDS011;14738;42.668;23.250;2024-03-08T13:07:39;2.97;;;2.80;;
5297;SDS011;14738;42.668;23.250;2024-03-08T13:10:06;5.10;;;3.20;;
5297;SDS011;14738;42.668;23.250;2024-03-08T13:12:32;3.20;;;2.97;;
5297;SDS011;14738;42.668;23.250;2024-03-08T13:14:58;3.47;;;3.17;;
5297;SDS011;14738;42.668;23.250;2024-03-08T13:17:23;2.97;;;2.80;;
5297;SDS011;14738;42.668;23.250;2024-03-08T13:19:48;3.13;;;2.93;;
5297;SDS011;14738;42.668;23.250;2024-03-08T13:22:14;3.20;;;3.00;;
5297;SDS011;14738;42.668;23.250;2024-03-08T13:24:42;2.90;;;2.70;;
5297;SDS011;14738;42.668;23.250;2024-03-08T13:27:08;2.50;;;2.30;;
5297;SDS011;14738;42.668;23.250;2024-03-08T13:29:47;3.30;;;2.67;;
5297;SDS011;14738;42.668;23.250;2024-03-08T13:32:14;3.00;;;2.80;;
5297;SDS011;14738;42.668;23.250;2024-03-08T13:34:41;2.90;;;2.70;;
5297;SDS011;14738;42.668;23.250;2024-03-08T13:37:07;2.40;;;2.30;;
5297;SDS011;14738;42.668;23.250;2024-03-08T13:39:42;2.97;;;2.63;;
5297;SDS011;14738;42.668;23.250;2024-03-08T13:42:11;3.10;;;2.90;;
5297;SDS011;14738;42.668;23.250;2024-03-08T13:44:38;2.37;;;2.27;;
5297;SDS011;14738;42.668;23.250;2024-03-08T13:47:05;2.23;;;2.13;;
5297;SDS011;14738;42.668;23.250;2024-03-08T13:49:32;2.70;;;2.23;;
5297;SDS011;14738;42.668;23.250;2024-03-08T13:51:58;2.80;;;2.60;;
5297;SDS011;14738;42.668;23.250;2024-03-08T13:54:26;2.53;;;2.37;;
5297;SDS011;14738;42.668;23.250;2024-03-08T13:56:52;2.60;;;2.33;;
5297;SDS011;14738;42.668;23.250;2024-03-08T13:59:19;2.20;;;2.10;;
5297;SDS011;14738;42.668;23.250;2024-03-08T14:01:47;2.37;;;2.27;;
5297;SDS011;14738;42.668;23.250;2024-03-08T14:04:14;2.20;;;2.10;;
5297;SDS011;14738;42.668;23.250;2024-03-08T14:06:42;2.50;;;2.40;;
5297;SDS011;14738;42.668;23.250;2024-03-08T14:09:08;2.50;;;2.40;;
5297;SDS011;14738;42.668;23.250;2024-03-08T14:11:34;2.70;;;2.60;;
5297;SDS011;14738;42.668;23.250;2024-03-08T14:13:59;4.93;;;3.03;;
5297;SDS011;14738;42.668;23.250;2024-03-08T14:16:25;2.50;;;2.40;;
5297;SDS011;14738;42.668;23.250;2024-03-08T14:18:51;2.33;;;2.23;;
5297;SDS011;14738;42.668;23.250;2024-03-08T14:21:16;2.53;;;2.40;;
5297;SDS011;14738;42.668;23.250;2024-03-08T14:23:42;8.80;;;4.20;;
5297;SDS011;14738;42.668;23.250;2024-03-08T14:26:08;5.27;;;2.67;;
5297;SDS011;14738;42.668;23.250;2024-03-08T14:28:34;2.30;;;2.20;;
5297;SDS011;14738;42.668;23.250;2024-03-08T14:31:00;2.57;;;2.47;;
5297;SDS011;14738;42.668;23.250;2024-03-08T14:33:28;3.20;;;2.90;;
5297;SDS011;14738;42.668;23.250;2024-03-08T14:35:53;3.10;;;2.90;;
5297;SDS011;14738;42.668;23.250;2024-03-08T14:38:19;3.27;;;2.30;;
5297;SDS011;14738;42.668;23.250;2024-03-08T14:40:45;2.80;;;2.70;;
5297;SDS011;14738;42.668;23.250;2024-03-08T14:43:12;4.33;;;3.10;;
5297;SDS011;14738;42.668;23.250;2024-03-08T14:45:38;2.77;;;2.67;;
5297;SDS011;14738;42.668;23.250;2024-03-08T14:48:03;2.43;;;2.23;;
5297;SDS011;14738;42.668;23.250;2024-03-08T14:50:29;2.90;;;2.80;;
5297;SDS011;14738;42.668;23.250;2024-03-08T14:52:57;3.00;;;2.70;;
5297;SDS011;14738;42.668;23.250;2024-03-08T14:55:23;2.80;;;2.60;;
5297;SDS011;14738;42.668;23.250;2024-03-08T14:57:48;3.27;;;3.07;;
5297;SDS011;14738;42.668;23.250;2024-03-08T15:00:16;2.50;;;2.40;;
5297;SDS011;14738;42.668;23.250;2024-03-08T15:02:52;2.97;;;2.77;;
5297;SDS011;14738;42.668;23.250;2024-03-08T15:05:18;3.20;;;2.90;;